Richmond, VA (23229)

1:41 AM EDT on May 07, 2015 (GMT -0400)
Windsor Farms | | Change Station
CLOSE
Current Station
Personal Weather Station
Location: Richmond, VA
Elevation: 242 ft
Nearby Weather Stations

Elev 242 ft 37.56 °N, 77.50 °W | Updated 1 minute ago

Partly Cloudy
Partly Cloudy
65.0 °F
Feels Like 65.0 °F
N
0.0
Wind Variable Wind from ESE
Gusts 0.0 mph

Today
High -- | Low -- °F
--% Chance of Precip.
Yesterday
High -- | Low -- °F
Precip. -- in
6:08 AM 8:05 PM
Waning Gibbous, 90% visible
Pressure 30.19 in
Visibility 10.0 miles
Clouds Overcast 30000 ft
Dew Point 60 °F
Humidity 83%
Rainfall 0.00 in
Snow Depth Not available.
UV 0 out of 12
Pollen 8.80 out of 12
Air Quality Not available.
Flu Activity Sporadic
METAR KRIC 070454Z 00000KT 10SM OVC300 19/14 A3018 RMK AO2 SLP224 T01940144 402890150

More Conditions Fewer Conditions

Pressure 30.19 in
Visibility 10.0 miles
Clouds Overcast 30000 ft
Dew Point 60 °F
Humidity 83%
Rainfall 0.00 in
Snow Depth Not available.
UV 0 out of 12
Pollen 8.80 out of 12
Air Quality Not available.
Flu Activity Sporadic
METAR KRIC 070454Z 00000KT 10SM OVC300 19/14 A3018 RMK AO2 SLP224 T01940144 402890150

More Conditions Fewer Conditions

10-Day Weather Forecast

Almanac

Astronomy

May. 07, 2015 Rise Set
Actual Time
Civil Twilight
Nautical Twilight
Astronomical Twilight
Moon
Length of Visible Light
Length of Day
Tomorrow will be .
, % of the Moon is Illuminated

Today's Extremes

State Highs State Lows

Community

WunderPhotos

Upload Photos

1,819,126 photos uploaded!

WunderBlogs® & News

Nearby

Air Quality

  Air Quality AQ Index Pollutant
Not available.

Snow Depth

Station Depth Elevation

Earthquake Activity

City Distance Mag. Time & Date
Minimum magnitude displayed is 2.5.

Coastal Water Temperatures

Place Temperature

Stations

Nearby Weather Stations

Station Location Temp. Windchill Dew Point Humidity Wind Precip. Elev Updated Type